createdAt,value
2022-12-08T00:00:03.041Z,6.20
2022-12-08T00:00:15.027Z,6.20
2022-12-08T00:00:26.956Z,6.20
2022-12-08T00:00:38.827Z,6.20
2022-12-08T00:00:50.627Z,6.10
2022-12-08T00:01:10.061Z,6.10
2022-12-08T00:01:24.390Z,6.00
2022-12-08T00:01:36.440Z,6.00
2022-12-08T00:01:48.437Z,6.00
2022-12-08T00:02:01.682Z,6.00
2022-12-08T00:02:14.073Z,6.00
2022-12-08T00:02:26.268Z,6.00
2022-12-08T00:02:38.450Z,6.00
2022-12-08T00:02:50.486Z,6.00
2022-12-08T00:03:02.487Z,6.00
2022-12-08T00:03:14.529Z,6.10
2022-12-08T00:03:26.650Z,6.10
2022-12-08T00:03:38.619Z,6.10
2022-12-08T00:03:50.689Z,6.10
2022-12-08T00:04:03.769Z,6.10
2022-12-08T00:04:15.557Z,6.10
2022-12-08T00:04:27.281Z,6.10
2022-12-08T00:04:59.427Z,6.10
2022-12-08T00:05:29.743Z,6.10
2022-12-08T00:06:07.024Z,6.10
2022-12-08T00:06:50.788Z,6.00
2022-12-08T00:07:21.143Z,6.00
2022-12-08T00:07:51.435Z,5.90
2022-12-08T00:08:21.546Z,5.90
2022-12-08T00:08:52.399Z,6.00
2022-12-08T00:09:22.354Z,5.90
2022-12-08T00:09:40.011Z,5.90
2022-12-08T00:09:51.783Z,6.00
2022-12-08T00:10:18.901Z,6.00
2022-12-08T00:10:51.038Z,6.00
2022-12-08T00:11:02.897Z,6.00
2022-12-08T00:11:14.842Z,6.10
2022-12-08T00:11:26.799Z,6.00
2022-12-08T00:11:39.519Z,6.10
2022-12-08T00:11:57.202Z,6.10
2022-12-08T00:12:15.112Z,6.10
2022-12-08T00:12:26.827Z,6.10
2022-12-08T00:12:39.000Z,6.10
2022-12-08T00:12:50.821Z,6.10
2022-12-08T00:13:02.650Z,6.20
2022-12-08T00:13:14.458Z,6.20
2022-12-08T00:13:26.282Z,6.20
2022-12-08T00:13:38.039Z,6.20
2022-12-08T00:13:49.793Z,6.20
2022-12-08T00:14:01.652Z,6.10
2022-12-08T00:14:13.534Z,6.10
2022-12-08T00:14:33.277Z,6.10
2022-12-08T00:14:46.572Z,6.00
2022-12-08T00:14:58.396Z,6.10
2022-12-08T00:15:10.387Z,6.00
2022-12-08T00:15:22.157Z,6.10
2022-12-08T00:15:33.892Z,6.10
2022-12-08T00:15:45.628Z,6.10
2022-12-08T00:16:00.922Z,6.00
2022-12-08T00:16:12.862Z,6.10
2022-12-08T00:16:24.753Z,6.00
2022-12-08T00:16:36.638Z,6.10
2022-12-08T00:16:48.518Z,6.10
2022-12-08T00:17:00.877Z,6.10
2022-12-08T00:17:14.228Z,6.00
2022-12-08T00:17:26.091Z,6.00
2022-12-08T00:17:37.840Z,6.00
2022-12-08T00:17:49.559Z,6.00
2022-12-08T00:18:01.619Z,6.00
2022-12-08T00:18:13.339Z,6.00
2022-12-08T00:18:25.071Z,6.00
2022-12-08T00:18:37.057Z,6.00
2022-12-08T00:18:48.802Z,6.00
2022-12-08T00:19:00.571Z,6.00
2022-12-08T00:19:12.390Z,6.00
2022-12-08T00:19:24.374Z,6.00
2022-12-08T00:19:39.038Z,6.00
2022-12-08T00:19:50.791Z,6.00
2022-12-08T00:20:02.613Z,6.00
2022-12-08T00:20:14.480Z,6.00
2022-12-08T00:20:26.211Z,6.00
2022-12-08T00:20:37.917Z,6.10
2022-12-08T00:20:56.392Z,6.00
2022-12-08T00:21:08.194Z,6.10
2022-12-08T00:21:19.912Z,6.00
2022-12-08T00:21:31.755Z,6.00
2022-12-08T00:21:43.553Z,6.00
2022-12-08T00:21:55.612Z,6.00
2022-12-08T00:22:08.681Z,6.00
2022-12-08T00:22:20.421Z,6.00
2022-12-08T00:22:32.353Z,6.00
2022-12-08T00:22:44.154Z,6.10
2022-12-08T00:22:55.924Z,6.10
2022-12-08T00:23:07.663Z,6.10
2022-12-08T00:23:19.469Z,6.10
2022-12-08T00:23:31.236Z,6.00
2022-12-08T00:23:43.007Z,6.10
2022-12-08T00:23:57.372Z,6.10
2022-12-08T00:24:09.151Z,6.10
2022-12-08T00:24:21.439Z,6.10
2022-12-08T00:24:35.565Z,6.10
2022-12-08T00:24:47.503Z,6.10
2022-12-08T00:24:59.284Z,6.10
2022-12-08T00:25:11.033Z,6.10
2022-12-08T00:25:22.898Z,6.10
2022-12-08T00:25:37.516Z,6.20
2022-12-08T00:25:49.320Z,6.20
2022-12-08T00:26:04.909Z,6.20
2022-12-08T00:26:16.710Z,6.20
2022-12-08T00:26:28.492Z,6.10
2022-12-08T00:26:40.363Z,6.10
2022-12-08T00:26:52.161Z,6.10
2022-12-08T00:27:04.167Z,6.10
2022-12-08T00:27:16.121Z,6.10
2022-12-08T00:27:27.880Z,6.10
2022-12-08T00:27:39.673Z,6.00
2022-12-08T00:27:51.533Z,6.00
2022-12-08T00:28:03.395Z,6.00
2022-12-08T00:28:15.191Z,6.10
2022-12-08T00:28:27.000Z,6.10
2022-12-08T00:28:38.858Z,6.00
2022-12-08T00:28:50.603Z,6.00
2022-12-08T00:29:02.465Z,6.00
2022-12-08T00:29:17.316Z,6.00
2022-12-08T00:29:29.693Z,6.00
2022-12-08T00:29:44.494Z,6.00
2022-12-08T00:29:56.610Z,6.00
2022-12-08T00:30:09.449Z,6.00
2022-12-08T00:30:21.218Z,6.00
2022-12-08T00:30:33.062Z,6.00
2022-12-08T00:30:44.953Z,6.00
2022-12-08T00:30:56.749Z,6.00
2022-12-08T00:31:10.029Z,6.10
2022-12-08T00:31:22.292Z,6.10
2022-12-08T00:31:34.213Z,6.00
2022-12-08T00:31:46.089Z,6.00
2022-12-08T00:31:57.988Z,6.00
2022-12-08T00:32:09.873Z,6.00
2022-12-08T00:32:21.816Z,6.00
2022-12-08T00:32:33.699Z,6.10
2022-12-08T00:32:45.512Z,6.00
2022-12-08T00:32:57.277Z,6.10
2022-12-08T00:33:09.664Z,6.10
2022-12-08T00:33:21.471Z,6.10
2022-12-08T00:33:33.267Z,6.00
2022-12-08T00:33:45.072Z,6.10
2022-12-08T00:33:56.881Z,6.00
2022-12-08T00:34:08.704Z,6.10
2022-12-08T00:34:20.675Z,6.00
2022-12-08T00:34:32.927Z,6.00
2022-12-08T00:34:44.707Z,6.00
2022-12-08T00:34:56.936Z,6.00
2022-12-08T00:35:09.079Z,6.00
2022-12-08T00:35:23.621Z,6.00
2022-12-08T00:35:38.771Z,6.00
2022-12-08T00:35:54.721Z,5.90
2022-12-08T00:36:12.259Z,5.90
2022-12-08T00:36:24.095Z,5.90
2022-12-08T00:36:35.837Z,5.90
2022-12-08T00:36:47.706Z,5.90
2022-12-08T00:36:59.493Z,5.90
2022-12-08T00:37:11.266Z,5.90
2022-12-08T00:37:23.020Z,5.90
2022-12-08T00:37:34.789Z,6.00
2022-12-08T00:37:46.571Z,6.00
2022-12-08T00:38:00.945Z,6.00
2022-12-08T00:38:13.011Z,5.90
2022-12-08T00:38:24.839Z,6.00
2022-12-08T00:38:37.025Z,5.90
2022-12-08T00:38:48.829Z,5.90
2022-12-08T00:39:00.596Z,6.00
2022-12-08T00:39:13.010Z,6.00
2022-12-08T00:39:24.841Z,6.00
2022-12-08T00:39:36.685Z,6.00
2022-12-08T00:39:48.523Z,6.00
2022-12-08T00:40:00.376Z,6.00
2022-12-08T00:40:12.411Z,6.00
2022-12-08T00:40:24.201Z,6.00
2022-12-08T00:40:36.002Z,6.00
2022-12-08T00:40:47.934Z,6.00
2022-12-08T00:40:59.690Z,6.00
2022-12-08T00:41:18.849Z,6.00
2022-12-08T00:41:49.154Z,6.00
2022-12-08T00:42:12.800Z,6.00
2022-12-08T00:42:24.641Z,6.00
2022-12-08T00:42:36.396Z,6.00
2022-12-08T00:42:48.186Z,5.90
2022-12-08T00:42:59.945Z,6.00
2022-12-08T00:43:11.727Z,6.00
2022-12-08T00:43:23.499Z,6.00
2022-12-08T00:43:35.289Z,6.00
2022-12-08T00:43:47.075Z,6.00
2022-12-08T00:43:58.879Z,6.00
2022-12-08T00:44:13.037Z,6.00
2022-12-08T00:44:25.011Z,6.00
2022-12-08T00:44:36.815Z,6.00
2022-12-08T00:44:48.666Z,6.00
2022-12-08T00:45:00.399Z,6.00
2022-12-08T00:45:12.504Z,6.00
2022-12-08T00:45:25.366Z,6.00
2022-12-08T00:45:37.706Z,6.00
2022-12-08T00:45:49.542Z,6.00
2022-12-08T00:46:01.409Z,6.00
2022-12-08T00:46:13.279Z,6.00
2022-12-08T00:46:25.191Z,6.00
2022-12-08T00:46:37.209Z,6.00
2022-12-08T00:46:49.120Z,6.00
2022-12-08T00:47:00.959Z,6.00
2022-12-08T00:47:13.057Z,6.10
2022-12-08T00:47:25.206Z,6.10
2022-12-08T00:47:37.140Z,6.00
2022-12-08T00:47:48.915Z,6.10
2022-12-08T00:48:00.665Z,6.00
2022-12-08T00:48:12.429Z,6.00
2022-12-08T00:48:24.160Z,6.00
2022-12-08T00:48:36.107Z,6.00
2022-12-08T00:48:47.896Z,6.00
2022-12-08T00:48:59.676Z,6.00
2022-12-08T00:49:11.828Z,6.00
2022-12-08T00:49:23.703Z,6.00
2022-12-08T00:49:35.554Z,6.00
2022-12-08T00:49:47.303Z,6.00
2022-12-08T00:49:59.028Z,6.00
2022-12-08T00:50:11.084Z,6.00
2022-12-08T00:50:22.819Z,6.10
2022-12-08T00:50:34.803Z,6.00
2022-12-08T00:50:46.670Z,6.00
2022-12-08T00:50:58.392Z,6.00
2022-12-08T00:51:10.179Z,6.00
2022-12-08T00:51:21.903Z,6.00
2022-12-08T00:51:33.887Z,6.10
2022-12-08T00:51:45.783Z,6.00
2022-12-08T00:51:57.543Z,6.00
2022-12-08T00:52:09.352Z,6.00
2022-12-08T00:52:21.083Z,6.10
2022-12-08T00:52:32.906Z,6.10
2022-12-08T00:52:44.726Z,6.00
2022-12-08T00:52:56.546Z,6.10
2022-12-08T00:53:08.350Z,6.10
2022-12-08T00:53:20.154Z,6.10
2022-12-08T00:53:32.317Z,6.10
2022-12-08T00:53:44.073Z,6.10
2022-12-08T00:53:55.892Z,6.10
2022-12-08T00:54:07.865Z,6.10
2022-12-08T00:54:19.743Z,6.10
2022-12-08T00:54:31.574Z,6.10
2022-12-08T00:54:43.307Z,6.10
2022-12-08T00:54:55.081Z,6.20
2022-12-08T00:55:07.359Z,6.20
2022-12-08T00:55:19.174Z,6.20
2022-12-08T00:55:30.963Z,6.20
2022-12-08T00:55:43.345Z,6.20
2022-12-08T00:55:55.511Z,6.20
2022-12-08T00:56:07.675Z,6.20
2022-12-08T00:56:19.427Z,6.20
2022-12-08T00:56:31.406Z,6.20
2022-12-08T00:56:43.218Z,6.20
2022-12-08T00:56:55.061Z,6.10
2022-12-08T00:57:06.915Z,6.10
2022-12-08T00:57:18.679Z,6.10
2022-12-08T00:57:30.634Z,6.10
2022-12-08T00:57:42.400Z,6.10
2022-12-08T00:57:54.150Z,6.10
2022-12-08T00:58:05.936Z,6.10
2022-12-08T00:58:17.666Z,6.10
2022-12-08T00:58:29.444Z,6.10
2022-12-08T00:58:42.678Z,6.10
2022-12-08T00:58:54.771Z,6.10
2022-12-08T00:59:07.749Z,6.10
2022-12-08T00:59:19.597Z,6.10
2022-12-08T00:59:31.409Z,6.10
2022-12-08T00:59:43.198Z,6.10
2022-12-08T00:59:55.022Z,6.10
2022-12-08T01:00:07.867Z,6.10
2022-12-08T01:00:20.304Z,6.10
2022-12-08T01:00:32.372Z,6.00
2022-12-08T01:00:44.398Z,6.10
2022-12-08T01:00:56.419Z,6.10
2022-12-08T01:01:14.530Z,6.10
2022-12-08T01:01:26.703Z,6.10
2022-12-08T01:01:38.508Z,6.10
2022-12-08T01:01:50.414Z,6.10
2022-12-08T01:02:02.268Z,6.10
2022-12-08T01:02:14.020Z,6.00
2022-12-08T01:02:25.848Z,6.00
2022-12-08T01:02:37.690Z,6.00
2022-12-08T01:02:49.858Z,6.00
2022-12-08T01:03:01.768Z,5.90
2022-12-08T01:03:13.750Z,5.90
2022-12-08T01:03:25.700Z,5.90
2022-12-08T01:03:37.683Z,5.90
2022-12-08T01:03:49.562Z,5.90
2022-12-08T01:04:08.906Z,5.90
2022-12-08T01:04:20.799Z,5.90
2022-12-08T01:04:32.581Z,5.80
2022-12-08T01:04:44.585Z,5.90
2022-12-08T01:04:56.348Z,5.80
2022-12-08T01:05:08.464Z,5.80
2022-12-08T01:05:20.228Z,5.80
2022-12-08T01:05:31.984Z,5.80
2022-12-08T01:05:44.463Z,5.70
2022-12-08T01:05:56.305Z,5.70
2022-12-08T01:06:08.490Z,5.70
2022-12-08T01:06:20.408Z,5.70
2022-12-08T01:06:32.338Z,5.70
2022-12-08T01:06:44.423Z,5.70
2022-12-08T01:06:56.197Z,5.70
2022-12-08T01:07:08.198Z,5.70
2022-12-08T01:07:20.027Z,5.70
2022-12-08T01:07:32.112Z,5.70
2022-12-08T01:07:43.997Z,5.70
2022-12-08T01:07:55.857Z,5.70
2022-12-08T01:08:08.654Z,5.70
2022-12-08T01:08:20.521Z,5.70
2022-12-08T01:08:32.718Z,5.60
2022-12-08T01:08:44.517Z,5.70
2022-12-08T01:08:56.252Z,5.60
2022-12-08T01:09:08.476Z,5.60
2022-12-08T01:09:20.314Z,5.60
2022-12-08T01:09:32.632Z,5.60
2022-12-08T01:09:44.434Z,5.60
2022-12-08T01:09:57.745Z,5.60
2022-12-08T01:10:09.788Z,5.60
2022-12-08T01:10:21.581Z,5.60
2022-12-08T01:10:36.369Z,5.60
2022-12-08T01:10:48.088Z,5.70
2022-12-08T01:11:14.439Z,5.70
2022-12-08T01:11:26.235Z,5.70
2022-12-08T01:11:38.035Z,5.70
2022-12-08T01:11:49.851Z,5.70
2022-12-08T01:12:01.670Z,5.70
2022-12-08T01:12:13.488Z,5.70
2022-12-08T01:12:25.268Z,5.70
2022-12-08T01:12:37.143Z,5.70
2022-12-08T01:12:48.888Z,5.70
2022-12-08T01:13:00.636Z,5.70
2022-12-08T01:13:12.450Z,5.70
2022-12-08T01:13:24.250Z,5.70
2022-12-08T01:13:36.113Z,5.70
2022-12-08T01:13:47.967Z,5.70
2022-12-08T01:13:59.850Z,5.80
2022-12-08T01:14:12.477Z,5.80
2022-12-08T01:14:24.220Z,5.80
2022-12-08T01:14:37.039Z,5.80
2022-12-08T01:14:48.841Z,5.80
2022-12-08T01:15:02.485Z,5.80
2022-12-08T01:15:14.694Z,5.80
2022-12-08T01:15:26.596Z,5.80
2022-12-08T01:15:38.364Z,5.80
2022-12-08T01:15:50.122Z,5.80
2022-12-08T01:16:01.951Z,5.80
2022-12-08T01:16:31.375Z,5.80
2022-12-08T01:16:43.520Z,5.80
2022-12-08T01:16:55.462Z,5.80
2022-12-08T01:17:07.352Z,5.90
2022-12-08T01:17:19.277Z,5.90
2022-12-08T01:17:31.408Z,5.90
2022-12-08T01:17:43.159Z,5.90
2022-12-08T01:17:54.984Z,5.90
2022-12-08T01:18:06.727Z,5.90
2022-12-08T01:18:18.544Z,5.90
2022-12-08T01:18:30.774Z,5.90
2022-12-08T01:18:42.565Z,5.90
2022-12-08T01:18:54.652Z,5.90
2022-12-08T01:19:06.383Z,5.90
2022-12-08T01:19:18.205Z,5.90
2022-12-08T01:19:30.908Z,5.90
2022-12-08T01:19:42.652Z,5.90
2022-12-08T01:19:54.412Z,5.90
2022-12-08T01:20:07.388Z,5.80
2022-12-08T01:20:19.219Z,5.80
2022-12-08T01:20:31.059Z,5.80
2022-12-08T01:20:42.881Z,5.80
2022-12-08T01:20:54.823Z,5.80
2022-12-08T01:21:07.148Z,5.70
2022-12-08T01:21:19.137Z,5.70
2022-12-08T01:21:30.931Z,5.70
2022-12-08T01:21:43.106Z,5.80
2022-12-08T01:21:55.181Z,5.80
2022-12-08T01:22:06.975Z,5.80
2022-12-08T01:22:18.712Z,5.80
2022-12-08T01:22:30.485Z,5.70
2022-12-08T01:22:42.200Z,5.80
2022-12-08T01:22:53.989Z,5.80
2022-12-08T01:23:05.746Z,5.80
2022-12-08T01:23:17.546Z,5.80
2022-12-08T01:23:29.324Z,5.80
2022-12-08T01:23:41.081Z,5.80
2022-12-08T01:23:52.909Z,5.80
2022-12-08T01:24:05.214Z,5.70
2022-12-08T01:24:21.076Z,5.80
2022-12-08T01:24:32.931Z,5.70
2022-12-08T01:24:44.715Z,5.70
2022-12-08T01:24:56.519Z,5.70
2022-12-08T01:25:08.858Z,5.80
2022-12-08T01:25:20.663Z,5.70
2022-12-08T01:25:34.681Z,5.70
2022-12-08T01:25:46.488Z,5.80
2022-12-08T01:26:03.676Z,5.80
2022-12-08T01:26:16.504Z,5.80
2022-12-08T01:26:28.374Z,5.80
2022-12-08T01:26:40.236Z,5.80
2022-12-08T01:26:52.033Z,5.70
2022-12-08T01:27:03.957Z,5.70
2022-12-08T01:27:16.364Z,5.60
2022-12-08T01:27:28.199Z,5.60
2022-12-08T01:27:39.956Z,5.60
2022-12-08T01:27:53.558Z,5.60
2022-12-08T01:28:05.465Z,5.60
2022-12-08T01:28:17.257Z,5.60
2022-12-08T01:28:29.745Z,5.60
2022-12-08T01:28:41.741Z,5.60
2022-12-08T01:28:53.518Z,5.60
2022-12-08T01:29:08.309Z,5.60
2022-12-08T01:29:20.152Z,5.60
2022-12-08T01:29:31.971Z,5.60
2022-12-08T01:29:43.752Z,5.60
2022-12-08T01:29:55.497Z,5.60
2022-12-08T01:30:08.346Z,5.60
2022-12-08T01:30:21.227Z,5.60
2022-12-08T01:30:33.152Z,5.60
2022-12-08T01:30:44.983Z,5.60
2022-12-08T01:30:57.896Z,5.60
2022-12-08T01:31:20.182Z,5.60
2022-12-08T01:31:32.025Z,5.60
2022-12-08T01:31:43.813Z,5.60
2022-12-08T01:31:55.684Z,5.60
2022-12-08T01:32:09.024Z,5.60
2022-12-08T01:32:20.826Z,5.60
2022-12-08T01:32:32.585Z,5.60
2022-12-08T01:32:44.485Z,5.60
2022-12-08T01:32:56.748Z,5.60
2022-12-08T01:33:08.577Z,5.60
2022-12-08T01:33:20.288Z,5.60
2022-12-08T01:33:32.132Z,5.60
2022-12-08T01:33:44.087Z,5.60
2022-12-08T01:33:55.839Z,5.60
2022-12-08T01:34:08.332Z,5.60
2022-12-08T01:34:20.061Z,5.60
2022-12-08T01:34:31.851Z,5.60
2022-12-08T01:34:43.643Z,5.60
2022-12-08T01:34:55.465Z,5.60
2022-12-08T01:35:07.636Z,5.60
2022-12-08T01:35:19.379Z,5.60
2022-12-08T01:35:31.210Z,5.60
2022-12-08T01:35:42.943Z,5.60
2022-12-08T01:35:55.437Z,5.60
2022-12-08T01:36:08.209Z,5.50
2022-12-08T01:36:23.302Z,5.50
2022-12-08T01:36:38.463Z,5.50
2022-12-08T01:36:50.357Z,5.50
2022-12-08T01:37:02.168Z,5.50
2022-12-08T01:37:13.947Z,5.50
2022-12-08T01:37:25.751Z,5.50
2022-12-08T01:37:37.552Z,5.50
2022-12-08T01:37:50.649Z,5.50
2022-12-08T01:38:02.391Z,5.40
2022-12-08T01:38:14.221Z,5.40
2022-12-08T01:38:25.948Z,5.40
2022-12-08T01:38:37.806Z,5.40
2022-12-08T01:38:50.173Z,5.40
2022-12-08T01:39:02.067Z,5.40
2022-12-08T01:39:18.012Z,5.40
2022-12-08T01:39:30.615Z,5.40
2022-12-08T01:39:42.487Z,5.50
2022-12-08T01:39:54.286Z,5.40
2022-12-08T01:40:07.549Z,5.40
2022-12-08T01:40:19.521Z,5.50
2022-12-08T01:40:31.334Z,5.50
2022-12-08T01:40:43.477Z,5.50
2022-12-08T01:40:55.293Z,5.50
2022-12-08T01:41:07.107Z,5.50
2022-12-08T01:41:21.675Z,5.50
2022-12-08T01:41:37.591Z,5.50
2022-12-08T01:41:49.913Z,5.40
2022-12-08T01:42:01.738Z,5.50
2022-12-08T01:42:23.137Z,5.50
2022-12-08T01:42:38.226Z,5.50
2022-12-08T01:42:50.143Z,5.50
2022-12-08T01:43:01.969Z,5.50
2022-12-08T01:43:19.082Z,5.50
2022-12-08T01:44:10.643Z,5.50
2022-12-08T01:44:22.368Z,5.50
2022-12-08T01:44:34.197Z,5.50
2022-12-08T01:44:45.928Z,5.50
2022-12-08T01:45:02.940Z,5.50
2022-12-08T01:45:36.063Z,5.50
2022-12-08T01:45:48.135Z,5.50
2022-12-08T01:46:00.101Z,5.50
2022-12-08T01:46:11.907Z,5.50
2022-12-08T01:46:24.538Z,5.50
2022-12-08T01:46:38.519Z,5.50
2022-12-08T01:46:50.357Z,5.50
2022-12-08T01:47:02.116Z,5.50
2022-12-08T01:47:13.907Z,5.50
2022-12-08T01:47:30.054Z,5.50
2022-12-08T01:47:45.211Z,5.50
2022-12-08T01:48:04.474Z,5.50
2022-12-08T01:48:27.113Z,5.50
2022-12-08T01:48:38.880Z,5.50
2022-12-08T01:49:10.813Z,5.60
2022-12-08T01:49:28.400Z,5.60
2022-12-08T01:49:40.135Z,5.60
2022-12-08T01:49:51.935Z,5.60
2022-12-08T01:50:05.727Z,5.60
2022-12-08T01:50:17.844Z,5.60
2022-12-08T01:50:29.702Z,5.60
2022-12-08T01:50:42.165Z,5.60
2022-12-08T01:50:54.447Z,5.60
2022-12-08T01:51:06.382Z,5.60
2022-12-08T01:51:18.220Z,5.60
2022-12-08T01:51:32.281Z,5.70
2022-12-08T01:52:11.899Z,5.60
2022-12-08T01:52:35.650Z,5.60
2022-12-08T01:53:17.026Z,5.60
2022-12-08T01:53:32.729Z,5.70
2022-12-08T01:53:44.520Z,5.70
2022-12-08T01:53:56.245Z,5.70
2022-12-08T01:54:08.490Z,5.70
2022-12-08T01:54:20.580Z,5.60
2022-12-08T01:54:34.953Z,5.60
2022-12-08T01:54:57.037Z,5.60
2022-12-08T01:55:22.754Z,5.60
2022-12-08T01:55:42.476Z,5.60
2022-12-08T01:55:58.014Z,5.60
2022-12-08T01:56:14.957Z,5.70
2022-12-08T01:56:34.432Z,5.60
2022-12-08T01:56:48.568Z,5.70
2022-12-08T01:57:17.087Z,5.70
2022-12-08T01:57:36.036Z,5.70
2022-12-08T01:57:50.170Z,5.70
2022-12-08T01:58:12.423Z,5.70
2022-12-08T01:58:31.216Z,5.70
2022-12-08T01:58:46.730Z,5.70
2022-12-08T01:58:58.516Z,5.70
2022-12-08T01:59:10.866Z,5.80
2022-12-08T01:59:22.699Z,5.80
2022-12-08T01:59:37.148Z,5.80
2022-12-08T01:59:55.194Z,5.70
2022-12-08T02:00:10.634Z,5.70
2022-12-08T02:00:22.547Z,5.80
2022-12-08T02:00:34.449Z,5.80
2022-12-08T02:00:46.601Z,5.80
2022-12-08T02:00:58.487Z,5.80
2022-12-08T02:01:10.793Z,5.70
2022-12-08T02:01:22.754Z,5.80
2022-12-08T02:01:34.761Z,5.80
2022-12-08T02:01:46.615Z,5.70
2022-12-08T02:01:58.429Z,5.70
2022-12-08T02:02:10.720Z,5.70
2022-12-08T02:02:22.659Z,5.70
2022-12-08T02:02:50.160Z,5.70
2022-12-08T02:03:09.234Z,5.70
2022-12-08T02:03:53.135Z,5.70
2022-12-08T02:04:05.523Z,5.70
2022-12-08T02:04:17.292Z,5.60
2022-12-08T02:04:29.087Z,5.60
2022-12-08T02:04:40.846Z,5.60
2022-12-08T02:04:52.675Z,5.60
2022-12-08T02:05:05.711Z,5.60
2022-12-08T02:05:18.928Z,5.60
2022-12-08T02:05:37.771Z,5.60
2022-12-08T02:05:49.582Z,5.60
2022-12-08T02:06:01.903Z,5.60
2022-12-08T02:06:13.733Z,5.70
2022-12-08T02:06:27.361Z,5.70
2022-12-08T02:06:41.374Z,5.70
2022-12-08T02:06:53.091Z,5.70
2022-12-08T02:07:07.935Z,5.70
2022-12-08T02:07:20.094Z,5.70
2022-12-08T02:07:31.892Z,5.70
2022-12-08T02:07:43.920Z,5.70
2022-12-08T02:07:56.096Z,5.70
2022-12-08T02:08:10.539Z,5.60
2022-12-08T02:08:22.410Z,5.60
2022-12-08T02:08:34.975Z,5.60
2022-12-08T02:08:46.757Z,5.60
2022-12-08T02:08:59.417Z,5.60
2022-12-08T02:09:11.247Z,5.60
2022-12-08T02:09:23.068Z,5.70
2022-12-08T02:09:35.735Z,5.60
2022-12-08T02:09:47.504Z,5.60
2022-12-08T02:09:59.285Z,5.60
2022-12-08T02:10:12.422Z,5.60
2022-12-08T02:10:25.355Z,5.70
2022-12-08T02:10:40.520Z,5.70
2022-12-08T02:10:52.913Z,5.60
2022-12-08T02:11:09.113Z,5.70
2022-12-08T02:11:21.058Z,5.70
2022-12-08T02:11:32.944Z,5.70
2022-12-08T02:11:44.737Z,5.70
2022-12-08T02:11:56.803Z,5.70
2022-12-08T02:12:08.897Z,5.70
2022-12-08T02:12:20.698Z,5.70
2022-12-08T02:12:32.484Z,5.70
2022-12-08T02:12:44.442Z,5.70
2022-12-08T02:12:57.075Z,5.70
2022-12-08T02:13:15.247Z,5.70
2022-12-08T02:13:27.069Z,5.70
2022-12-08T02:13:40.108Z,5.80
2022-12-08T02:13:52.184Z,5.80
2022-12-08T02:14:05.774Z,5.80
2022-12-08T02:14:17.516Z,5.80
2022-12-08T02:14:29.273Z,5.80
2022-12-08T02:14:41.096Z,5.70
2022-12-08T02:14:52.881Z,5.70
2022-12-08T02:15:05.770Z,5.70
2022-12-08T02:15:18.037Z,5.60
2022-12-08T02:16:08.249Z,5.60
2022-12-08T02:16:38.604Z,5.60
2022-12-08T02:17:14.014Z,5.60
2022-12-08T02:17:58.837Z,5.60
2022-12-08T02:18:26.255Z,5.60
2022-12-08T02:19:30.230Z,5.40
2022-12-08T02:20:17.097Z,5.50
2022-12-08T02:20:42.492Z,5.50
2022-12-08T02:21:09.229Z,5.60
2022-12-08T02:21:38.122Z,5.60
2022-12-08T02:22:09.345Z,5.60
2022-12-08T02:23:00.679Z,5.70
2022-12-08T02:23:30.928Z,5.60
2022-12-08T02:24:31.311Z,5.60
2022-12-08T02:25:04.568Z,5.60
2022-12-08T02:25:28.103Z,5.60
2022-12-08T02:25:57.730Z,5.60
2022-12-08T02:27:01.648Z,5.50
2022-12-08T02:27:33.965Z,5.40
2022-12-08T02:28:15.822Z,5.40
2022-12-08T02:29:34.597Z,5.30
2022-12-08T02:30:13.714Z,5.40
2022-12-08T02:31:05.951Z,5.30
2022-12-08T02:31:45.544Z,5.40
2022-12-08T02:32:15.236Z,5.40
2022-12-08T02:33:25.239Z,5.40
2022-12-08T02:34:04.263Z,5.40
2022-12-08T02:34:17.808Z,5.40
2022-12-08T02:34:56.403Z,5.40
2022-12-08T02:35:27.524Z,5.40
2022-12-08T02:35:45.214Z,5.50
2022-12-08T02:36:24.565Z,5.50
2022-12-08T02:36:57.543Z,5.40
2022-12-08T02:37:26.197Z,5.40
2022-12-08T02:38:13.016Z,5.40
2022-12-08T02:50:23.101Z,5.10
2022-12-08T02:50:34.941Z,5.20
2022-12-08T02:50:46.701Z,5.20
2022-12-08T02:50:58.511Z,5.20
2022-12-08T02:51:10.314Z,5.20
2022-12-08T02:51:22.095Z,5.20
2022-12-08T02:51:33.927Z,5.20
2022-12-08T02:51:45.702Z,5.20
2022-12-08T02:52:12.497Z,5.20
2022-12-08T02:52:24.286Z,5.20
2022-12-08T02:52:44.107Z,5.20
2022-12-08T02:52:55.851Z,5.20
2022-12-08T02:53:18.891Z,5.20
2022-12-08T02:53:31.935Z,5.20
2022-12-08T02:53:43.683Z,5.10
2022-12-08T02:53:55.401Z,5.20
2022-12-08T02:54:07.179Z,5.10
2022-12-08T02:54:18.916Z,5.20
2022-12-08T02:54:30.712Z,5.10
2022-12-08T02:54:55.788Z,5.10
2022-12-08T02:55:14.915Z,5.10
2022-12-08T02:56:21.911Z,5.00
2022-12-08T02:57:00.548Z,5.00
2022-12-08T02:57:33.316Z,5.00
2022-12-08T02:58:11.005Z,5.00
2022-12-08T02:58:57.684Z,4.90
2022-12-08T02:59:48.124Z,4.90
2022-12-08T03:00:09.833Z,4.90
2022-12-08T03:00:23.364Z,4.90
2022-12-08T03:00:57.173Z,5.00
2022-12-08T03:02:03.006Z,5.00
2022-12-08T03:12:19.365Z,4.90
2022-12-08T03:12:53.838Z,4.90
2022-12-08T03:13:17.607Z,4.90
2022-12-08T03:13:41.868Z,4.90
2022-12-08T03:13:56.484Z,4.90
2022-12-08T03:14:08.865Z,4.90
2022-12-08T03:14:20.629Z,4.90
2022-12-08T03:14:32.427Z,4.90
2022-12-08T03:14:48.118Z,4.90
2022-12-08T03:15:08.079Z,4.90
2022-12-08T03:15:20.468Z,4.90
2022-12-08T03:15:32.256Z,4.80
2022-12-08T03:15:46.814Z,4.80
2022-12-08T03:15:58.643Z,4.80
2022-12-08T03:16:11.855Z,4.80
2022-12-08T03:16:26.665Z,4.80
2022-12-08T03:16:39.402Z,4.80
2022-12-08T03:16:53.799Z,4.80
2022-12-08T03:17:05.528Z,4.80
2022-12-08T03:17:17.610Z,4.80
2022-12-08T03:17:29.805Z,4.80
2022-12-08T03:17:45.011Z,4.80
2022-12-08T03:17:58.324Z,4.80
2022-12-08T03:18:11.255Z,4.80
2022-12-08T03:18:27.330Z,4.80
2022-12-08T03:18:44.214Z,4.80
2022-12-08T03:19:13.831Z,4.80
2022-12-08T03:19:29.797Z,4.90
2022-12-08T03:19:42.150Z,4.90
2022-12-08T03:19:54.462Z,4.90
2022-12-08T03:20:10.100Z,4.80
2022-12-08T03:20:24.327Z,4.90
2022-12-08T03:20:36.211Z,4.90
2022-12-08T03:20:48.044Z,4.90
2022-12-08T03:20:59.842Z,4.90
2022-12-08T03:21:12.539Z,4.90
2022-12-08T03:21:24.304Z,4.90
2022-12-08T03:21:36.181Z,4.90
2022-12-08T03:21:51.756Z,4.90
2022-12-08T03:22:04.670Z,4.90
2022-12-08T03:22:20.041Z,4.90
2022-12-08T03:22:31.846Z,4.90
2022-12-08T03:22:43.639Z,4.90
2022-12-08T03:22:57.151Z,4.90
2022-12-08T03:23:10.880Z,4.90
2022-12-08T03:23:22.752Z,4.90
2022-12-08T03:23:36.549Z,4.90
2022-12-08T03:23:50.857Z,4.90
2022-12-08T03:24:04.717Z,4.90
2022-12-08T03:24:16.562Z,4.90
2022-12-08T03:24:36.472Z,4.90
2022-12-08T03:24:48.331Z,4.90
2022-12-08T03:25:00.250Z,4.90
2022-12-08T03:25:14.108Z,5.00
2022-12-08T03:25:28.186Z,5.00
2022-12-08T03:25:46.412Z,4.90
2022-12-08T03:26:57.697Z,5.00
2022-12-08T03:27:23.616Z,5.10
2022-12-08T03:27:35.436Z,5.10
2022-12-08T03:27:47.223Z,5.10
2022-12-08T03:27:59.604Z,5.10
2022-12-08T03:28:12.710Z,5.10
2022-12-08T03:28:24.468Z,5.10
2022-12-08T03:28:36.215Z,5.00
2022-12-08T03:28:48.012Z,5.00
2022-12-08T03:28:59.854Z,5.00
2022-12-08T03:29:11.607Z,5.00
2022-12-08T03:29:23.585Z,5.00
2022-12-08T03:29:35.428Z,5.00
2022-12-08T03:29:48.403Z,5.00
2022-12-08T03:30:00.186Z,5.00
2022-12-08T03:30:12.591Z,5.10
2022-12-08T03:30:24.384Z,5.10
2022-12-08T03:30:39.250Z,5.10
2022-12-08T03:30:52.218Z,5.10
2022-12-08T03:31:07.314Z,5.10
2022-12-08T03:31:19.221Z,5.10
2022-12-08T03:31:34.108Z,5.10
2022-12-08T03:31:54.063Z,5.00
2022-12-08T03:32:41.415Z,5.00
2022-12-08T03:33:08.995Z,5.00
2022-12-08T03:33:25.490Z,5.10
2022-12-08T03:33:38.478Z,5.10
2022-12-08T03:33:51.475Z,5.10
2022-12-08T03:34:03.405Z,5.10
2022-12-08T03:34:15.216Z,5.10
2022-12-08T03:34:28.241Z,5.00
2022-12-08T03:34:40.466Z,5.10
2022-12-08T03:34:53.066Z,5.10
2022-12-08T03:35:11.006Z,5.10
2022-12-08T03:35:28.011Z,5.10
2022-12-08T03:35:40.098Z,5.10
2022-12-08T03:35:51.875Z,5.10
2022-12-08T03:36:05.145Z,5.10
2022-12-08T03:36:16.953Z,5.10
2022-12-08T03:36:28.830Z,5.00
2022-12-08T03:36:40.701Z,5.10
2022-12-08T03:36:52.520Z,5.10
2022-12-08T03:37:04.380Z,5.10
2022-12-08T03:37:16.453Z,5.00
2022-12-08T03:37:28.566Z,5.00
2022-12-08T03:37:40.942Z,5.10
2022-12-08T03:37:52.766Z,5.00
2022-12-08T03:38:07.466Z,5.00
2022-12-08T03:38:19.333Z,5.00
2022-12-08T03:38:42.318Z,5.00
2022-12-08T03:38:54.390Z,5.00
2022-12-08T03:39:06.141Z,5.00
2022-12-08T03:39:17.969Z,5.00
2022-12-08T03:39:29.740Z,5.00
2022-12-08T03:39:41.548Z,5.00
2022-12-08T03:39:53.297Z,5.00
2022-12-08T03:40:07.877Z,5.00
2022-12-08T03:40:20.532Z,5.00
2022-12-08T03:40:32.321Z,5.00
2022-12-08T03:40:44.473Z,5.00
2022-12-08T03:41:22.163Z,5.10
2022-12-08T03:41:33.911Z,5.10
2022-12-08T03:41:46.275Z,5.10
2022-12-08T03:41:57.979Z,5.10
2022-12-08T03:42:09.777Z,5.10
2022-12-08T03:42:21.617Z,5.10
2022-12-08T03:42:33.394Z,5.10
2022-12-08T03:42:45.209Z,5.10
2022-12-08T03:42:56.978Z,5.10